Terminal Aerodrome Forecast
Issued by NWS Denver/Boulder, CO

Home | Current Version | Previous Version | Text Only | Print | Product List | Glossary On
Versions: 1 2 3 4 5 6 7 8 9 10 11 12 13 14 15 16 17 18 19 20 21 22 23 24 25 26 27 28 29 30 31 32 33 34 35
000
FTUS45 KBOU 271647 AAC
TAFDEN
TAF AMD
KDEN 271647Z 2717/2818 20014G22KT P6SM FEW080 SCT220
     FM272000 23020G30KT P6SM FEW080 SCT220
     FM280000 22012G20KT P6SM FEW080 BKN220
     FM280600 29013G21KT P6SM SCT050 BKN110
     FM281200 13007KT P6SM BKN050 OVC110=

USA.gov is the U.S. government's official web portal to all federal, state and local government web resources and services.